Startpagina
METAR-TAF:

METAR-TAF

Vliegvelden :

Oostende, België

Internationale Luchthaven Oostende-Brugge

breedte: 51-12N, lengte: 002-52E, hoogte: 4 m

Actueel weer

Dit bericht is 28 minuten geleden gemaakt, om 18:20 UTC
Wind 3 kt uit het oostnoordoosten
Temperatuur 12°C
Vochtigheid 88%
Druk 1018 hPa
Zicht 10 km of meer
Gebroken wolken op 3600 ft

METAR: EBOS 171820Z 06003KT 9999 BKN036 12/10 Q1018 NOSIG

Tijdstip: 20:48 (18:48 UTC)

Verwachting

Dit bericht is 1 uur en het 47 minuten geleden gemaakt, om 17:01 UTC
Verwachting geldig van 17 om 18 UTC tot 18 om 24 UTC
Wind 5 kt uit het noordoosten
Zicht 10 km of meer
Verspreide wolken op 1700 ft
Tijdelijke
van 17 om 22 UTC tot 18 om 01 UTC
Weinig wolken op 900 ft
Gebroken wolken op 1300 ft
Tijdelijke
van 18 om 03 UTC tot 18 om 10 UTC
Zicht: 3500 m
nevel
Kans 40%
van 18 om 04 UTC tot 18 om 09 UTC
Zicht: 0600 m
Gebroken wolken op 100 ft
mist

TAF: EBOS 171701Z 1718/1824 05005KT 9999 SCT017 TEMPO 1722/1801 FEW009 BKN013 TEMPO 1803/1810 3500 BR PROB40 1804/1809 0600 FG BKN001

Waarnemingen en weersverwachtingen van meer dan 4000 vliegvelden (METAR en TAF).

De beschikbare stations zijn de gele en rode punten op de kaart.

Ga met uw muis naar het station om de naam te zien.

Klik dan om waarnemingen en weersverwachtingen te zien.

kaart wijzigen: klik op de groene knoppen met een zwart kruis om in te zoomen, op de groene knop met een streepje om uit te zoomen of op de groene pijlen voor aangrenzende kaarten.


METAR-TAF: